createdAt,value
2023-02-03T00:03:51.806Z,7.68
2023-02-03T00:08:58.288Z,8.03
2023-02-03T00:14:00.429Z,8.75
2023-02-03T00:19:02.767Z,7.93
2023-02-03T00:24:05.212Z,6.30
2023-02-03T00:29:07.282Z,10.25
2023-02-03T00:34:09.371Z,9.70
2023-02-03T00:39:11.452Z,9.93
2023-02-03T00:44:14.634Z,6.30
2023-02-03T00:49:16.768Z,8.13
2023-02-03T00:54:18.892Z,9.32
2023-02-03T00:59:21.028Z,7.47
2023-02-03T01:04:23.166Z,7.65
2023-02-03T01:09:26.230Z,9.03
2023-02-03T01:14:28.342Z,7.30
2023-02-03T01:19:30.427Z,9.38
2023-02-03T01:24:32.620Z,7.17
2023-02-03T01:29:34.904Z,10.02
2023-02-03T01:34:36.975Z,7.03
2023-02-03T01:39:39.112Z,7.30
2023-02-03T01:44:53.349Z,6.53
2023-02-03T01:50:04.376Z,9.07
2023-02-03T01:55:10.120Z,7.35
2023-02-03T02:00:13.877Z,6.60
2023-02-03T02:05:24.158Z,6.57
2023-02-03T02:10:27.275Z,6.37
2023-02-03T02:15:49.739Z,6.47
2023-02-03T02:20:54.843Z,8.95
2023-02-03T02:26:31.344Z,6.83
2023-02-03T02:31:52.083Z,6.85
2023-02-03T02:37:15.522Z,7.87
2023-02-03T02:42:23.743Z,6.27
2023-02-03T02:47:25.834Z,7.75
2023-02-03T02:52:31.777Z,6.80
2023-02-03T02:57:37.070Z,6.45
2023-02-03T03:02:39.481Z,7.65
2023-02-03T03:07:48.793Z,7.10
2023-02-03T03:12:57.191Z,6.20
2023-02-03T03:18:20.051Z,8.17
2023-02-03T03:23:32.080Z,7.97
2023-02-03T03:28:48.498Z,7.70
2023-02-03T03:33:50.683Z,5.33
2023-02-03T03:39:25.022Z,7.75
2023-02-03T03:44:34.002Z,7.93
2023-02-03T03:49:37.452Z,6.87
2023-02-03T03:54:41.530Z,6.97
2023-02-03T03:59:48.025Z,7.30
2023-02-03T04:04:51.216Z,7.30
2023-02-03T04:09:53.312Z,8.13
2023-02-03T04:14:55.421Z,7.53
2023-02-03T04:19:57.561Z,6.12
2023-02-03T04:24:59.676Z,8.63
2023-02-03T04:30:02.188Z,8.10
2023-02-03T04:35:06.049Z,7.53
2023-02-03T04:40:08.976Z,7.97
2023-02-03T04:45:12.367Z,7.93
2023-02-03T04:50:14.470Z,5.63
2023-02-03T04:55:16.560Z,6.87
2023-02-03T05:00:19.063Z,6.80
2023-02-03T05:05:21.327Z,5.72
2023-02-03T05:10:23.424Z,5.95
2023-02-03T05:15:25.522Z,5.90
2023-02-03T05:20:28.529Z,5.80
2023-02-03T05:25:31.310Z,5.67
2023-02-03T05:30:33.530Z,5.78
2023-02-03T05:35:35.940Z,5.15
2023-02-03T05:40:56.755Z,7.30
2023-02-03T05:46:06.617Z,7.07
2023-02-03T05:51:08.737Z,6.27
2023-02-03T05:56:10.807Z,8.82
2023-02-03T06:01:12.967Z,7.03
2023-02-03T06:06:16.414Z,6.50
2023-02-03T06:11:18.607Z,6.40
2023-02-03T06:16:21.313Z,7.53
2023-02-03T06:21:23.625Z,9.50
2023-02-03T06:26:25.784Z,7.95
2023-02-03T06:31:28.335Z,9.07
2023-02-03T06:36:30.511Z,7.45
2023-02-03T06:41:32.852Z,7.50
2023-02-03T06:46:35.280Z,8.57
2023-02-03T06:51:37.407Z,7.80
2023-02-03T06:56:39.527Z,7.77
2023-02-03T07:01:42.157Z,7.15
2023-02-03T07:06:44.343Z,6.63
2023-02-03T07:11:46.530Z,6.62
2023-02-03T07:16:48.625Z,8.57
2023-02-03T07:21:50.784Z,7.10
2023-02-03T07:26:53.286Z,6.40
2023-02-03T07:31:55.498Z,9.03
2023-02-03T07:36:57.784Z,9.20
2023-02-03T07:41:59.992Z,5.78
2023-02-03T07:47:02.154Z,6.53
2023-02-03T07:52:04.533Z,10.40
2023-02-03T07:57:06.628Z,8.93
2023-02-03T08:02:11.356Z,5.45
2023-02-03T08:07:13.488Z,8.30
2023-02-03T08:12:15.555Z,7.27
2023-02-03T08:17:17.622Z,7.85
2023-02-03T08:22:19.804Z,7.40
2023-02-03T08:27:23.262Z,6.20
2023-02-03T08:32:25.894Z,7.25
2023-02-03T08:37:30.229Z,7.70
2023-02-03T08:42:32.481Z,7.68
2023-02-03T08:47:36.891Z,7.13
2023-02-03T08:52:40.149Z,8.57
2023-02-03T08:57:42.321Z,7.62
2023-02-03T09:02:44.480Z,10.47
2023-02-03T09:07:46.731Z,8.32
2023-02-03T09:12:49.209Z,8.47
2023-02-03T09:17:51.405Z,9.85
2023-02-03T09:22:55.077Z,9.95
2023-02-03T09:27:57.329Z,11.70
2023-02-03T09:32:59.483Z,9.85
2023-02-03T09:38:02.079Z,10.77
2023-02-03T09:43:42.541Z,10.20
2023-02-03T09:48:50.569Z,13.98
2023-02-03T09:54:00.813Z,11.97
2023-02-03T09:59:03.970Z,14.25
2023-02-03T10:04:28.511Z,16.47
2023-02-03T10:09:34.328Z,18.50
2023-02-03T10:14:50.859Z,14.77
2023-02-03T10:20:17.244Z,15.07
2023-02-03T10:25:25.893Z,13.40
2023-02-03T10:30:34.505Z,11.57
2023-02-03T10:36:00.484Z,13.68
2023-02-03T10:41:03.739Z,11.98
2023-02-03T10:46:06.027Z,11.83
2023-02-03T10:51:24.658Z,12.43
2023-02-03T10:56:31.385Z,14.10
2023-02-03T11:01:45.237Z,13.48
2023-02-03T11:07:08.271Z,13.05
2023-02-03T11:12:19.464Z,12.07
2023-02-03T11:17:27.412Z,12.73
2023-02-03T11:22:38.528Z,11.43
2023-02-03T11:27:40.953Z,11.50
2023-02-03T11:32:46.669Z,12.48
2023-02-03T11:37:51.424Z,10.67
2023-02-03T11:42:53.495Z,13.90
2023-02-03T11:48:07.569Z,10.93
2023-02-03T11:53:47.787Z,15.77
2023-02-03T11:59:01.005Z,12.90
2023-02-03T12:04:44.370Z,12.83
2023-02-03T12:10:04.770Z,12.90
2023-02-03T12:15:20.410Z,10.77
2023-02-03T12:21:04.227Z,10.40
2023-02-03T12:26:34.679Z,9.45
2023-02-03T12:32:04.645Z,13.27
2023-02-03T12:37:15.080Z,11.10
2023-02-03T12:42:24.544Z,9.80
2023-02-03T12:47:34.491Z,9.45
2023-02-03T12:53:00.761Z,10.18
2023-02-03T12:58:28.541Z,9.20
2023-02-03T13:03:39.149Z,9.90
2023-02-03T13:09:08.612Z,11.07
2023-02-03T13:14:46.773Z,14.50
2023-02-03T13:19:56.455Z,12.95
2023-02-03T13:25:16.963Z,13.53
2023-02-03T13:30:44.272Z,11.48
2023-02-03T13:35:55.620Z,13.07
2023-02-03T13:41:16.212Z,10.38
2023-02-03T13:46:26.487Z,13.95
2023-02-03T13:51:39.376Z,12.77
2023-02-03T13:56:42.226Z,14.60
2023-02-03T14:01:44.618Z,13.87
2023-02-03T14:06:49.429Z,18.15
2023-02-03T14:12:12.437Z,14.05
2023-02-03T14:17:36.357Z,14.57
2023-02-03T14:22:40.146Z,14.85
2023-02-03T14:27:42.404Z,16.33
2023-02-03T14:33:00.728Z,16.73
2023-02-03T14:38:09.201Z,16.50
2023-02-03T14:43:28.391Z,13.37
2023-02-03T14:48:36.692Z,15.40
2023-02-03T14:53:48.041Z,16.77
2023-02-03T14:58:55.073Z,19.65
2023-02-03T15:04:26.351Z,14.13
2023-02-03T15:09:46.040Z,10.67
2023-02-03T15:14:48.944Z,14.95
2023-02-03T15:19:52.044Z,10.93
2023-02-03T15:25:02.793Z,16.17
2023-02-03T15:30:28.128Z,11.50
2023-02-03T15:35:33.215Z,11.33
2023-02-03T15:40:44.007Z,8.82
2023-02-03T15:45:59.179Z,8.40
2023-02-03T15:51:08.456Z,14.10
2023-02-03T15:56:19.476Z,10.85
2023-02-03T16:01:26.058Z,9.57
2023-02-03T16:06:38.346Z,6.50
2023-02-03T16:11:40.550Z,6.00
2023-02-03T16:17:04.500Z,4.57
2023-02-03T16:22:28.735Z,4.93
2023-02-03T16:27:32.775Z,4.83
2023-02-03T16:32:53.484Z,5.22
2023-02-03T16:38:14.639Z,5.33
2023-02-03T16:43:35.983Z,3.85
2023-02-03T16:48:56.959Z,3.78
2023-02-03T16:53:59.161Z,3.87
2023-02-03T16:59:01.434Z,4.00
2023-02-03T17:04:03.703Z,4.53
2023-02-03T17:09:06.251Z,6.18
2023-02-03T17:14:08.843Z,6.90
2023-02-03T17:19:12.492Z,6.77
2023-02-03T17:24:15.284Z,7.03
2023-02-03T17:29:17.461Z,5.97
2023-02-03T17:34:19.559Z,5.78
2023-02-03T17:55:21.235Z,6.37
2023-02-03T18:00:23.671Z,7.07
2023-02-03T18:05:42.649Z,7.60
2023-02-03T18:10:44.866Z,7.80
2023-02-03T18:15:46.904Z,9.10
2023-02-03T18:20:49.140Z,8.67
2023-02-03T18:25:55.223Z,8.30
2023-02-03T18:31:12.445Z,6.18
2023-02-03T18:36:18.316Z,6.83
2023-02-03T18:41:25.821Z,7.47
2023-02-03T18:46:30.138Z,5.33
2023-02-03T18:51:32.389Z,4.20
2023-02-03T18:56:37.227Z,4.80
2023-02-03T19:01:39.460Z,5.50
2023-02-03T19:06:45.506Z,6.53
2023-02-03T19:11:48.065Z,7.03
2023-02-03T19:16:51.793Z,7.55
2023-02-03T19:21:54.050Z,7.25
2023-02-03T19:26:56.362Z,5.23
2023-02-03T19:31:58.653Z,5.57
2023-02-03T19:37:00.807Z,4.03
2023-02-03T19:42:03.666Z,3.95
2023-02-03T19:47:05.913Z,4.55
2023-02-03T19:52:10.136Z,5.53
2023-02-03T19:57:12.258Z,5.80
2023-02-03T20:02:16.018Z,3.17
2023-02-03T20:07:19.120Z,6.03
2023-02-03T20:12:21.310Z,6.35
2023-02-03T20:17:24.251Z,6.53
2023-02-03T20:22:26.358Z,6.60
2023-02-03T20:27:28.459Z,5.97
2023-02-03T20:32:30.905Z,3.62
2023-02-03T20:37:33.405Z,5.50
2023-02-03T20:42:35.589Z,5.70
2023-02-03T20:47:37.740Z,5.93
2023-02-03T20:52:39.878Z,5.30
2023-02-03T20:57:42.356Z,6.22
2023-02-03T21:03:04.142Z,6.80
2023-02-03T21:08:15.348Z,4.87
2023-02-03T21:13:26.620Z,7.18
2023-02-03T21:18:43.564Z,7.43
2023-02-03T21:23:47.570Z,7.12
2023-02-03T21:28:53.379Z,5.50
2023-02-03T21:33:57.902Z,9.43
2023-02-03T21:39:00.876Z,7.75
2023-02-03T21:44:40.760Z,4.87
2023-02-03T21:49:42.851Z,11.65
2023-02-03T21:54:44.976Z,9.02
2023-02-03T21:59:49.183Z,7.20
2023-02-03T22:04:51.301Z,7.95
2023-02-03T22:09:53.442Z,8.10
2023-02-03T22:14:55.540Z,6.10
2023-02-03T22:19:57.608Z,5.87
2023-02-03T22:24:59.994Z,6.67
2023-02-03T22:30:02.168Z,7.15
2023-02-03T22:35:04.403Z,8.43
2023-02-03T22:40:06.788Z,9.73
2023-02-03T22:45:09.639Z,10.68
2023-02-03T22:50:13.570Z,7.53
2023-02-03T22:55:15.697Z,10.00
2023-02-03T23:00:23.348Z,9.27
2023-02-03T23:05:25.499Z,10.45
2023-02-03T23:10:32.215Z,9.50
2023-02-03T23:15:34.581Z,9.00
2023-02-03T23:20:36.725Z,11.77
2023-02-03T23:25:38.975Z,9.87
2023-02-03T23:30:41.130Z,9.60
2023-02-03T23:35:46.082Z,11.35
2023-02-03T23:40:48.202Z,8.13
2023-02-03T23:45:50.273Z,13.13
2023-02-03T23:50:52.431Z,6.77
2023-02-03T23:55:54.564Z,7.78
